Cactus Peak, Santa Catalina Island Weather observations

Data are for 10 minute period ending at time listed.
 Day   Time   Solar   Ave.   Ave.  Ave.  Vector    Max.   Stn.    Total
  of    of     Rad.   Air    Rel.  Wind   Wind     Wind   Baro.  Precip.
Year   Day            Temp.  Hum.  Speed  Dir.     Gust   Pres.         
2014   (PST)   W/m2    F      %     mph   deg.      mph    mb.     in.  
------------------------------------------------------------------------
 244    0:30    0.0    66   90.1     7    136.7     9.6    999.0   0.00  
 244    0:40    0.0    66   90.1     6    136.3     9.0    999.0   0.00  
 244    0:50    0.0    66   90.1     7    141.3     8.4    999.0   0.00  
 244    1:00    0.0    66   90.2     5    140.0     8.4    999.0   0.00  
 244    1:10    0.0    66   90.2     5    104.1     9.0    999.0   0.00  
 244    1:20    0.0    66   90.2     7    144.2     9.6    999.0   0.00  
 244    1:30    0.0    66   90.2     5    124.5     9.0    999.0   0.00  
 244    1:40    0.0    66   90.2     4    126.9     8.4    999.0   0.00  
 244    1:50    0.0    66   90.1     5    139.2     7.8    999.0   0.00  
 244    2:00    0.0    66   90.1     4    120.7     7.2    999.0   0.00  
 244    2:10    0.0    66   90.2     4    106.3     7.2    999.0   0.00  
 244    2:20    0.0    65   90.1     6     98.0    10.2    999.0   0.00  
 244    2:30    0.0    65   90.1     5    102.4     9.0    999.0   0.00  
 244    2:40    0.0    65   90.2     4    101.3     7.2    999.0   0.00  
 244    2:50    0.0    66   90.1     4     71.8     6.0    999.0   0.00  
 244    3:00    0.0    66   90.1     5     73.2     7.2    999.0   0.00  
 244    3:10    0.0    66   90.1     5     60.7     7.8    999.0   0.00  
 244    3:20    0.0    66   90.0     5     51.8     7.8    999.0   0.00  
 244    3:30    0.0    66   90.0     4     28.4     6.6    999.0   0.00  
 244    3:40    0.0    66   90.0     5     34.8     8.4    999.0   0.00  
 244    3:50    0.0    66   89.9     6     56.3    11.3    999.0   0.00  
 244    4:00    0.0    66   89.8     6     75.1     9.0    999.0   0.00  
 244    4:10    0.0    66   89.6     5     63.8     9.0    999.0   0.00  
 244    4:20    0.0    66   89.3     5     54.2     7.8    999.0   0.00  
 244    4:30    0.0    66   89.0     5     75.4     7.8    999.0   0.00  
 244    4:40    0.0    66   88.5     5     71.2     8.4    999.0   0.00  
 244    4:50    0.0    66   88.0     5     82.3     9.0    999.0   0.00  
 244    5:00    0.0    66   87.6     5     71.3     9.0    999.0   0.00  
 244    5:10    0.0    66   87.5     3     67.3     7.2    999.0   0.00  
 244    5:20    0.0    66   87.4     4     45.2     7.2    999.0   0.00  
 244    5:30    0.0    66   87.6     6     29.6    10.2    999.0   0.00  
 244    5:40    3.0    66   87.6     6     37.6     9.6    999.0   0.00  
 244    5:50    9.0    66   87.4     6     34.5    10.2    999.0   0.00  
 244    6:00   17.0    66   87.1     6     38.4    11.3    999.0   0.00  
 244    6:10   28.0    66   87.0     6     30.1    11.3    999.0   0.00  
 244    6:20   40.0    66   86.7     9     24.8    13.1    999.0   0.00  
 244    6:30   67.0    66   86.3     8     25.5    10.2    999.0   0.00  
 244    6:40  114.0    67   85.8     8     30.8    10.8    999.0   0.00  
 244    6:50  137.0    67   84.4     8     31.4    11.9    999.0   0.00  
 244    7:00  132.0    67   84.0     6     33.5    10.8    999.0   0.00  
 244    7:10  145.0    68   83.2     7     29.5     9.6    999.0   0.00  
 244    7:20  247.0    69   81.4     8     28.2    12.5    999.0   0.00  
 244    7:30  264.0    69   80.5     6     26.0     9.6    999.0   0.00  
 244    7:40  280.0    70   78.9     7     35.6    11.9    999.0   0.00  
 244    7:50  352.0    70   78.9     6     42.4    11.3    999.0   0.00  
 244    8:00  352.0    71   77.8     6     71.2    11.9    999.0   0.00  
 244    8:10  466.0    72   76.5     5     70.5     7.8    999.0   0.00  
 244    8:20  490.0    72   74.7     6     35.0     9.6    999.0   0.00  
 244    8:30  521.0    74   73.2     4     55.4     8.4    999.0   0.00  
 244    8:40  566.0    72   75.2     7    131.8    10.8    999.0   0.00  
 244    8:50  594.0    72   76.1     7    134.1    10.8    999.0   0.00  
 244    9:00  621.0    72   75.2     6    117.1    10.2    999.0   0.00  
 244    9:10  654.0    72   74.7     6    122.1    10.8    999.0   0.00  
 244    9:20  680.0    72   75.1     7    127.8    11.3    999.0   0.00  
 244    9:30  703.0    73   74.3     6    124.4    11.3    999.0   0.00  
 244    9:40  726.0    73   73.1     6    102.0    10.2    999.0   0.00  
 244    9:50  747.0    74   72.0     6    107.9    10.8    999.0   0.00  
 244   10:00  766.0    74   72.7     7     97.6    11.3    999.0   0.00  
 244   10:10  785.0    74   71.9     6     91.4    11.3    999.0   0.00  
 244   10:20  804.0    75   71.2     6     68.5    10.8    999.0   0.00  
 244   10:30  820.0    75   70.9     6     54.8    10.8    999.0   0.00  
 244   10:40  837.0    76   68.5     5     42.2    10.2    999.0   0.00  
 244   10:50  848.0    75   69.8     7    181.2    12.5    999.0   0.00  
 244   11:00  858.0    74   70.6     6    153.1    10.2    999.0   0.00  
 244   11:10  870.0    74   70.3     6    165.7    11.3    999.0   0.00  
 244   11:20  877.0    74   70.9     8    163.0    16.1    999.0   0.00  
 244   11:30  882.0    74   71.5     7    144.1    11.9    999.0   0.00  
 244   11:40  889.0    74   71.6     7    151.2    14.9    999.0   0.00  
 244   11:50  892.0    74   71.9     8    145.3    14.9    999.0   0.00  
 244   12:00  892.0    74   72.1     8    164.4    13.1    999.0   0.00  
 244   12:10  893.0    75   71.0     6    173.3    11.3    999.0   0.00  
 244   12:20  893.0    76   68.8     7    173.2    10.8    999.0   0.00  
 244   12:30  889.0    75   70.9     9    174.3    16.1    999.0   0.00  
 244   12:40  882.0    74   72.9     9    171.2    14.9    999.0   0.00  
 244   12:50  874.0    74   72.4     8    165.1    13.7    999.0   0.00  
 244   13:00  867.0    76   68.7     4    168.7     8.4    999.0   0.00  
 244   13:10  857.0    76   68.2     5    178.9    10.2    999.0   0.00  
 244   13:20  843.0    76   68.9     6    174.4    10.8    999.0   0.00  
 244   13:30  830.0    75   69.6     6    171.7    10.2    999.0   0.00  
 244   13:40  817.0    78   66.6     4    262.8     9.0    999.0   0.00  
 244   13:50  803.0    79   64.5     4    194.7     7.8    999.0   0.00  
 244   14:00  783.0    76   68.4     5    175.7     9.6    999.0   0.00  
 244   14:10  762.0    76   69.2     8    181.7    12.5    999.0   0.00  
 244   14:20  739.0    74   72.3     6    172.8    10.8    999.0   0.00  
 244   14:30  717.0    75   71.2     7    173.1    11.3    999.0   0.00  
 244   14:40  694.0    74   72.3     6    176.3    11.9    999.0   0.00  
 244   14:50  668.0    74   73.4     8    179.9    12.5    999.0   0.00  
 244   15:00  641.0    75   71.3     7    195.9    12.5    999.0   0.00  
 244   15:10  614.0    76   70.2     4    211.9     9.0    999.0   0.00  
 244   15:20  585.0    77   68.7     4    207.4     8.4    999.0   0.00  
 244   15:30  556.0    79   66.0     4    277.3     6.6    999.0   0.00  
 244   15:40  526.0    81   62.6     3    316.3     6.0    999.0   0.00  
 244   15:50  495.0    81   63.3     3    203.6     5.4    999.0   0.00  
 244   16:00  460.0    78   68.1     5    190.8    10.2    999.0   0.00  
 244   16:10  428.0    75   73.9     6    182.1     9.0    999.0   0.00  
 244   16:20  394.0    74   75.3     8    174.9    11.9    999.0   0.00  
 244   16:30  360.0    73   77.0     7    174.1    10.8    999.0   0.00  
 244   16:40  326.0    73   76.4     7    175.2    11.3    999.0   0.00  
 244   16:50  291.0    74   75.6     6    173.7     8.4    999.0   0.00  
 244   17:00  257.0    76   72.4     5    274.6     7.2    999.0   0.00  
 244   17:10  223.0    76   70.3     6    310.7     9.6    999.0   0.00  
 244   17:20  190.0    75   69.1     8    328.7    10.8    999.0   0.00  
 244   17:30  157.0    74   69.7    10    336.2    13.7    999.0   0.00  
 244   17:40  125.0    73   71.9    10    342.8    13.1    999.0   0.00  
 244   17:50   92.0    72   73.9     9    338.5    12.5    999.0   0.00  
 244   18:00   56.0    72   75.9     9    337.4    13.1    999.0   0.00  
 244   18:10   30.0    71   78.0     8    338.8    11.3    999.0   0.00  
 244   18:20   10.0    70   80.0     7    341.7    10.8    999.0   0.00  
 244   18:30    4.0    69   82.3    10    341.2    12.5    999.0   0.00  
 244   18:40    0.0    68   84.4     9    341.1    12.5    999.0   0.00  
 244   18:50    0.0    68   85.4     7    332.4    11.3    999.0   0.00  
 244   19:00    0.0    68   86.0     5    320.8     7.2    999.0   0.00  
 244   19:10    0.0    68   86.5     6    327.3     8.4    999.0   0.00  
 244   19:20    0.0    67   87.0     8    333.4    10.2    999.0   0.00  
 244   19:30    0.0    67   87.4     5    326.2     7.2    999.0   0.00  
 244   19:40    0.0    67   87.7     4    307.6     5.4    999.0   0.00  
 244   19:50    0.0    67   87.7     4    310.8     6.0    999.0   0.00  
 244   20:00    0.0    67   87.8     3    278.9     4.2    999.0   0.00  
 244   20:10    0.0    67   87.8     2    232.9     3.6    999.0   0.00  
 244   20:20    0.0    67   87.7     2    279.2     3.6    999.0   0.00  
 244   20:30    0.0    67   87.5     2    241.3     2.4    999.0   0.00  
 244   20:40    0.0    67   87.1     2    240.9     2.4    999.0   0.00  
 244   20:50    0.0    67   86.9     3    292.0     3.6    999.0   0.00  
 244   21:00    0.0    67   87.0     2    274.4     3.0    999.0   0.00  
 244   21:10    0.0    67   87.0     2    275.7     3.0    999.0   0.00  
 244   21:20    0.0    67   87.1     3    291.5     3.6    999.0   0.00  
 244   21:30    0.0    67   87.3     3    286.6     3.6    999.0   0.00  
 244   21:40    0.0    67   87.5     2    267.4     3.0    999.0   0.00  
 244   21:50    0.0    67   87.5     3    231.7     4.2    999.0   0.00  
 244   22:00    0.0    67   87.5     3    227.6     4.2    999.0   0.00  
 244   22:10    0.0    67   87.6     3    254.4     4.2    999.0   0.00  
 244   22:20    0.0    67   87.6     2    269.1     4.2    999.0   0.00  
 244   22:30    0.0    67   87.6     2    299.8     5.4    999.0   0.00  
 244   22:40    0.0    67   87.7     4    327.8     4.8    999.0   0.00  
 244   22:50    0.0    67   87.8     3    336.8     5.4    999.0   0.00  
 244   23:00    0.0    67   87.7     3    295.1     4.2    999.0   0.00  
 244   23:10    0.0    67   87.4     1    268.5     3.6    999.0   0.00  
 244   23:20    0.0    67   87.2     2    349.3     3.6    999.0   0.00  
 244   23:30    0.0    66   87.1     2    343.3     3.6    999.0   0.00  
 244   23:40    0.0    66   86.8     2     31.0     3.0    999.0   0.00  
 244   23:50    0.0    66   86.5     2      5.9     3.6    999.0   0.00  
 245    0:00    0.0    67   86.3     2      4.3     2.4    999.0   0.00  
 245    0:10    0.0    67   86.3     2    339.9     3.0    999.0   0.00  
 245    0:20    0.0    67   86.6     2    311.9     3.6    999.0   0.00  

Return to Cactus Peak graphs page.


Western Regional Climate Center,wrcc@dri.edu